sensor_id;sensor_type;location;lat;lon;timestamp;temperature;humidity
42261;DHT22;27926;48.062;7.474;2023-07-29T00:02:34;16.80;99.90
42261;DHT22;27926;48.062;7.474;2023-07-29T00:22:26;16.50;99.90
42261;DHT22;27926;48.062;7.474;2023-07-29T01:46:20;16.80;99.90
42261;DHT22;27926;48.062;7.474;2023-07-29T02:06:13;16.90;99.90
42261;DHT22;27926;48.062;7.474;2023-07-29T02:11:39;16.90;99.90
42261;DHT22;27926;48.062;7.474;2023-07-29T02:18:11;16.80;99.90
42261;DHT22;27926;48.062;7.474;2023-07-29T02:27:44;16.90;99.90
42261;DHT22;27926;48.062;7.474;2023-07-29T02:33:26;17.00;99.90
42261;DHT22;27926;48.062;7.474;2023-07-29T02:36:03;17.10;99.90
42261;DHT22;27926;48.062;7.474;2023-07-29T02:38:27;17.10;99.90
42261;DHT22;27926;48.062;7.474;2023-07-29T02:40:54;17.10;99.90
42261;DHT22;27926;48.062;7.474;2023-07-29T02:43:19;17.20;99.90
42261;DHT22;27926;48.062;7.474;2023-07-29T02:45:43;17.20;99.90
42261;DHT22;27926;48.062;7.474;2023-07-29T02:48:08;17.20;99.90
42261;DHT22;27926;48.062;7.474;2023-07-29T02:57:34;17.10;99.90
42261;DHT22;27926;48.062;7.474;2023-07-29T03:10:24;17.10;99.90
42261;DHT22;27926;48.062;7.474;2023-07-29T03:12:49;17.00;99.90
42261;DHT22;27926;48.062;7.474;2023-07-29T03:15:15;17.00;99.90
42261;DHT22;27926;48.062;7.474;2023-07-29T03:17:59;17.00;99.90
42261;DHT22;27926;48.062;7.474;2023-07-29T03:20:24;17.00;99.90
42261;DHT22;27926;48.062;7.474;2023-07-29T03:22:49;17.00;99.90
42261;DHT22;27926;48.062;7.474;2023-07-29T03:25:33;17.00;99.90
42261;DHT22;27926;48.062;7.474;2023-07-29T03:27:58;16.90;99.90
42261;DHT22;27926;48.062;7.474;2023-07-29T03:46:02;17.30;99.90
42261;DHT22;27926;48.062;7.474;2023-07-29T03:52:08;18.30;99.90
42261;DHT22;27926;48.062;7.474;2023-07-29T03:55:12;17.30;99.90
42261;DHT22;27926;48.062;7.474;2023-07-29T03:57:36;17.30;99.90
42261;DHT22;27926;48.062;7.474;2023-07-29T04:00:01;17.30;99.90
42261;DHT22;27926;48.062;7.474;2023-07-29T04:02:26;17.40;99.90
42261;DHT22;27926;48.062;7.474;2023-07-29T04:04:51;17.30;99.90
42261;DHT22;27926;48.062;7.474;2023-07-29T04:07:16;17.30;99.90
42261;DHT22;27926;48.062;7.474;2023-07-29T04:09:41;17.30;99.90
42261;DHT22;27926;48.062;7.474;2023-07-29T04:12:08;17.30;99.90
42261;DHT22;27926;48.062;7.474;2023-07-29T04:14:32;17.30;99.90
42261;DHT22;27926;48.062;7.474;2023-07-29T04:16:57;17.30;99.90
42261;DHT22;27926;48.062;7.474;2023-07-29T04:19:22;17.30;99.90
42261;DHT22;27926;48.062;7.474;2023-07-29T04:21:46;17.30;99.90
42261;DHT22;27926;48.062;7.474;2023-07-29T04:24:11;17.40;99.90
42261;DHT22;27926;48.062;7.474;2023-07-29T04:26:36;17.40;99.90
42261;DHT22;27926;48.062;7.474;2023-07-29T04:29:00;17.40;99.90
42261;DHT22;27926;48.062;7.474;2023-07-29T04:31:25;17.50;99.90
42261;DHT22;27926;48.062;7.474;2023-07-29T04:33:49;17.60;99.90
42261;DHT22;27926;48.062;7.474;2023-07-29T04:36:14;17.60;99.90
42261;DHT22;27926;48.062;7.474;2023-07-29T04:38:39;17.60;99.90
42261;DHT22;27926;48.062;7.474;2023-07-29T04:41:03;17.70;99.90
42261;DHT22;27926;48.062;7.474;2023-07-29T04:43:31;17.70;99.90
42261;DHT22;27926;48.062;7.474;2023-07-29T04:45:56;17.80;99.90
42261;DHT22;27926;48.062;7.474;2023-07-29T04:48:21;17.80;99.90
42261;DHT22;27926;48.062;7.474;2023-07-29T04:50:45;17.80;99.90
42261;DHT22;27926;48.062;7.474;2023-07-29T04:53:10;17.80;99.90
42261;DHT22;27926;48.062;7.474;2023-07-29T04:55:34;17.90;99.90
42261;DHT22;27926;48.062;7.474;2023-07-29T04:57:59;17.90;99.90
42261;DHT22;27926;48.062;7.474;2023-07-29T05:00:24;17.90;99.90
42261;DHT22;27926;48.062;7.474;2023-07-29T05:02:49;17.90;99.90
42261;DHT22;27926;48.062;7.474;2023-07-29T05:05:14;17.90;99.90
42261;DHT22;27926;48.062;7.474;2023-07-29T05:07:38;17.90;99.90
42261;DHT22;27926;48.062;7.474;2023-07-29T05:10:03;17.90;99.90
42261;DHT22;27926;48.062;7.474;2023-07-29T05:12:28;17.90;99.90
42261;DHT22;27926;48.062;7.474;2023-07-29T05:14:53;17.90;99.90
42261;DHT22;27926;48.062;7.474;2023-07-29T05:17:18;17.90;99.90
42261;DHT22;27926;48.062;7.474;2023-07-29T05:19:43;17.90;99.90
42261;DHT22;27926;48.062;7.474;2023-07-29T05:22:08;18.00;99.90
42261;DHT22;27926;48.062;7.474;2023-07-29T05:24:34;18.00;99.90
42261;DHT22;27926;48.062;7.474;2023-07-29T05:26:59;18.00;99.90
42261;DHT22;27926;48.062;7.474;2023-07-29T05:29:23;18.10;99.90
42261;DHT22;27926;48.062;7.474;2023-07-29T05:31:48;18.10;99.90
42261;DHT22;27926;48.062;7.474;2023-07-29T05:34:12;18.20;99.90
42261;DHT22;27926;48.062;7.474;2023-07-29T05:36:37;18.20;99.90
42261;DHT22;27926;48.062;7.474;2023-07-29T05:39:02;18.30;99.90
42261;DHT22;27926;48.062;7.474;2023-07-29T05:41:26;18.40;99.90
42261;DHT22;27926;48.062;7.474;2023-07-29T05:43:52;18.40;99.90
42261;DHT22;27926;48.062;7.474;2023-07-29T05:46:17;18.40;99.90
42261;DHT22;27926;48.062;7.474;2023-07-29T05:48:41;18.50;99.90
42261;DHT22;27926;48.062;7.474;2023-07-29T05:51:06;18.50;99.90
42261;DHT22;27926;48.062;7.474;2023-07-29T05:53:31;18.50;99.90
42261;DHT22;27926;48.062;7.474;2023-07-29T05:55:55;18.60;99.90
42261;DHT22;27926;48.062;7.474;2023-07-29T05:58:20;18.60;99.90
42261;DHT22;27926;48.062;7.474;2023-07-29T06:00:45;18.60;99.90
42261;DHT22;27926;48.062;7.474;2023-07-29T06:03:09;18.60;99.90
42261;DHT22;27926;48.062;7.474;2023-07-29T06:05:34;18.60;99.90
42261;DHT22;27926;48.062;7.474;2023-07-29T06:07:58;18.60;99.90
42261;DHT22;27926;48.062;7.474;2023-07-29T06:10:23;18.60;99.90
42261;DHT22;27926;48.062;7.474;2023-07-29T06:12:48;18.60;99.90
42261;DHT22;27926;48.062;7.474;2023-07-29T06:15:12;18.70;99.90
42261;DHT22;27926;48.062;7.474;2023-07-29T06:17:37;18.70;99.90
42261;DHT22;27926;48.062;7.474;2023-07-29T06:20:02;18.70;99.90
42261;DHT22;27926;48.062;7.474;2023-07-29T06:22:27;18.70;99.90
42261;DHT22;27926;48.062;7.474;2023-07-29T06:24:57;18.80;99.90
42261;DHT22;27926;48.062;7.474;2023-07-29T06:27:21;18.80;99.90
42261;DHT22;27926;48.062;7.474;2023-07-29T06:29:46;18.90;99.90
42261;DHT22;27926;48.062;7.474;2023-07-29T06:32:11;18.90;99.90
42261;DHT22;27926;48.062;7.474;2023-07-29T06:34:35;19.00;99.90
42261;DHT22;27926;48.062;7.474;2023-07-29T06:37:00;19.10;99.90
42261;DHT22;27926;48.062;7.474;2023-07-29T06:39:25;19.40;99.90
42261;DHT22;27926;48.062;7.474;2023-07-29T06:41:49;19.60;99.90
42261;DHT22;27926;48.062;7.474;2023-07-29T06:44:14;19.90;99.90
42261;DHT22;27926;48.062;7.474;2023-07-29T06:46:39;20.30;99.90
42261;DHT22;27926;48.062;7.474;2023-07-29T06:49:05;21.10;99.90
42261;DHT22;27926;48.062;7.474;2023-07-29T06:51:29;21.70;99.90
42261;DHT22;27926;48.062;7.474;2023-07-29T06:53:56;21.90;99.90
42261;DHT22;27926;48.062;7.474;2023-07-29T06:56:21;22.00;99.90
42261;DHT22;27926;48.062;7.474;2023-07-29T06:58:46;22.40;99.90
42261;DHT22;27926;48.062;7.474;2023-07-29T07:01:10;23.00;99.90
42261;DHT22;27926;48.062;7.474;2023-07-29T07:03:35;23.80;99.90
42261;DHT22;27926;48.062;7.474;2023-07-29T07:05:59;24.30;99.90
42261;DHT22;27926;48.062;7.474;2023-07-29T07:08:24;24.50;99.90
42261;DHT22;27926;48.062;7.474;2023-07-29T07:10:49;24.80;99.90
42261;DHT22;27926;48.062;7.474;2023-07-29T07:13:13;25.10;99.90
42261;DHT22;27926;48.062;7.474;2023-07-29T07:15:38;25.40;99.90
42261;DHT22;27926;48.062;7.474;2023-07-29T07:18:02;25.40;99.90
42261;DHT22;27926;48.062;7.474;2023-07-29T07:20:27;25.50;99.90
42261;DHT22;27926;48.062;7.474;2023-07-29T07:22:52;25.50;99.90
42261;DHT22;27926;48.062;7.474;2023-07-29T07:25:16;25.40;99.90
42261;DHT22;27926;48.062;7.474;2023-07-29T07:27:41;25.10;99.90
42261;DHT22;27926;48.062;7.474;2023-07-29T07:30:06;25.10;99.90
42261;DHT22;27926;48.062;7.474;2023-07-29T07:32:31;25.30;99.90
42261;DHT22;27926;48.062;7.474;2023-07-29T07:34:55;25.60;99.90
42261;DHT22;27926;48.062;7.474;2023-07-29T07:37:20;26.00;99.90
42261;DHT22;27926;48.062;7.474;2023-07-29T07:39:44;25.90;99.90
42261;DHT22;27926;48.062;7.474;2023-07-29T07:42:09;25.60;99.90
42261;DHT22;27926;48.062;7.474;2023-07-29T07:44:34;25.60;99.90
42261;DHT22;27926;48.062;7.474;2023-07-29T07:46:58;25.50;99.90
42261;DHT22;27926;48.062;7.474;2023-07-29T07:49:23;25.70;99.90
42261;DHT22;27926;48.062;7.474;2023-07-29T07:51:47;25.60;99.90
42261;DHT22;27926;48.062;7.474;2023-07-29T07:54:12;25.30;99.90
42261;DHT22;27926;48.062;7.474;2023-07-29T07:56:37;25.00;99.90
42261;DHT22;27926;48.062;7.474;2023-07-29T07:59:02;24.80;99.90
42261;DHT22;27926;48.062;7.474;2023-07-29T08:01:27;24.40;99.90
42261;DHT22;27926;48.062;7.474;2023-07-29T08:03:51;24.20;99.90
42261;DHT22;27926;48.062;7.474;2023-07-29T08:06:16;24.30;99.90
42261;DHT22;27926;48.062;7.474;2023-07-29T08:08:40;24.30;99.90
42261;DHT22;27926;48.062;7.474;2023-07-29T08:11:05;24.10;99.90
42261;DHT22;27926;48.062;7.474;2023-07-29T08:13:30;24.10;99.90
42261;DHT22;27926;48.062;7.474;2023-07-29T08:15:54;23.90;99.90
42261;DHT22;27926;48.062;7.474;2023-07-29T08:18:19;24.00;99.90
42261;DHT22;27926;48.062;7.474;2023-07-29T08:20:58;24.40;99.90
42261;DHT22;27926;48.062;7.474;2023-07-29T08:23:24;24.90;99.90
42261;DHT22;27926;48.062;7.474;2023-07-29T08:25:53;25.30;99.90
42261;DHT22;27926;48.062;7.474;2023-07-29T08:28:20;25.40;99.90
42261;DHT22;27926;48.062;7.474;2023-07-29T08:30:45;25.30;99.90
42261;DHT22;27926;48.062;7.474;2023-07-29T08:33:10;25.40;99.90
42261;DHT22;27926;48.062;7.474;2023-07-29T08:35:34;25.30;99.90
42261;DHT22;27926;48.062;7.474;2023-07-29T08:37:59;25.40;99.90
42261;DHT22;27926;48.062;7.474;2023-07-29T08:40:27;25.60;99.90
42261;DHT22;27926;48.062;7.474;2023-07-29T08:42:54;25.80;99.90
42261;DHT22;27926;48.062;7.474;2023-07-29T08:45:21;26.00;99.90
42261;DHT22;27926;48.062;7.474;2023-07-29T08:47:46;26.30;99.90
42261;DHT22;27926;48.062;7.474;2023-07-29T08:50:11;26.50;99.90
42261;DHT22;27926;48.062;7.474;2023-07-29T08:52:36;26.80;99.90
42261;DHT22;27926;48.062;7.474;2023-07-29T08:55:02;27.00;99.90
42261;DHT22;27926;48.062;7.474;2023-07-29T08:57:27;27.10;99.90
42261;DHT22;27926;48.062;7.474;2023-07-29T08:59:52;27.50;99.90
42261;DHT22;27926;48.062;7.474;2023-07-29T09:02:17;27.60;99.90
42261;DHT22;27926;48.062;7.474;2023-07-29T09:04:42;27.80;99.90
42261;DHT22;27926;48.062;7.474;2023-07-29T09:07:07;27.90;99.90
42261;DHT22;27926;48.062;7.474;2023-07-29T09:09:32;27.90;99.90
42261;DHT22;27926;48.062;7.474;2023-07-29T09:11:57;27.50;99.90
42261;DHT22;27926;48.062;7.474;2023-07-29T09:14:23;27.20;99.90
42261;DHT22;27926;48.062;7.474;2023-07-29T09:16:48;27.30;99.90
42261;DHT22;27926;48.062;7.474;2023-07-29T09:19:13;27.40;99.90
42261;DHT22;27926;48.062;7.474;2023-07-29T09:21:41;27.50;99.90
42261;DHT22;27926;48.062;7.474;2023-07-29T09:24:07;27.60;99.70
42261;DHT22;27926;48.062;7.474;2023-07-29T09:26:32;27.50;99.90
42261;DHT22;27926;48.062;7.474;2023-07-29T09:28:58;27.30;99.90
42261;DHT22;27926;48.062;7.474;2023-07-29T09:31:27;27.10;99.30
42261;DHT22;27926;48.062;7.474;2023-07-29T09:34:00;26.70;99.90
42261;DHT22;27926;48.062;7.474;2023-07-29T09:36:26;26.40;99.90
42261;DHT22;27926;48.062;7.474;2023-07-29T09:38:55;26.30;99.90
42261;DHT22;27926;48.062;7.474;2023-07-29T09:41:22;26.30;99.90
42261;DHT22;27926;48.062;7.474;2023-07-29T09:43:47;26.40;99.90
42261;DHT22;27926;48.062;7.474;2023-07-29T09:46:12;26.50;99.90
42261;DHT22;27926;48.062;7.474;2023-07-29T09:48:37;26.70;99.60
42261;DHT22;27926;48.062;7.474;2023-07-29T09:51:12;27.10;99.10
42261;DHT22;27926;48.062;7.474;2023-07-29T09:53:43;27.70;99.90
42261;DHT22;27926;48.062;7.474;2023-07-29T09:56:08;27.90;98.80
42261;DHT22;27926;48.062;7.474;2023-07-29T09:58:33;27.90;98.30
42261;DHT22;27926;48.062;7.474;2023-07-29T10:00:59;27.60;97.40
42261;DHT22;27926;48.062;7.474;2023-07-29T10:03:25;27.30;97.90
42261;DHT22;27926;48.062;7.474;2023-07-29T10:05:50;27.30;98.80
42261;DHT22;27926;48.062;7.474;2023-07-29T10:08:15;27.40;98.70
42261;DHT22;27926;48.062;7.474;2023-07-29T10:10:42;27.70;98.60
42261;DHT22;27926;48.062;7.474;2023-07-29T10:13:07;28.20;97.80
42261;DHT22;27926;48.062;7.474;2023-07-29T10:15:32;28.10;97.10
42261;DHT22;27926;48.062;7.474;2023-07-29T10:17:57;27.90;97.10
42261;DHT22;27926;48.062;7.474;2023-07-29T10:20:22;27.70;98.10
42261;DHT22;27926;48.062;7.474;2023-07-29T10:22:47;27.40;97.80
42261;DHT22;27926;48.062;7.474;2023-07-29T10:25:16;27.20;97.70
42261;DHT22;27926;48.062;7.474;2023-07-29T10:27:52;27.10;98.50
42261;DHT22;27926;48.062;7.474;2023-07-29T10:30:18;27.00;98.40
42261;DHT22;27926;48.062;7.474;2023-07-29T10:32:43;27.10;98.60
42261;DHT22;27926;48.062;7.474;2023-07-29T10:35:13;26.90;98.90
42261;DHT22;27926;48.062;7.474;2023-07-29T10:37:38;26.90;99.20
42261;DHT22;27926;48.062;7.474;2023-07-29T10:40:06;26.90;99.00
42261;DHT22;27926;48.062;7.474;2023-07-29T10:42:31;27.00;99.40
42261;DHT22;27926;48.062;7.474;2023-07-29T10:44:56;27.00;99.10
42261;DHT22;27926;48.062;7.474;2023-07-29T10:47:26;27.10;99.60
42261;DHT22;27926;48.062;7.474;2023-07-29T10:49:56;27.10;99.30
42261;DHT22;27926;48.062;7.474;2023-07-29T10:52:40;27.20;99.10
42261;DHT22;27926;48.062;7.474;2023-07-29T10:55:43;27.30;98.60
42261;DHT22;27926;48.062;7.474;2023-07-29T10:58:12;27.40;98.60
42261;DHT22;27926;48.062;7.474;2023-07-29T11:00:38;27.70;98.70
42261;DHT22;27926;48.062;7.474;2023-07-29T11:03:05;27.90;98.30
42261;DHT22;27926;48.062;7.474;2023-07-29T11:05:47;28.00;97.60
42261;DHT22;27926;48.062;7.474;2023-07-29T11:10:44;28.30;98.20
42261;DHT22;27926;48.062;7.474;2023-07-29T11:13:21;28.30;97.00
42261;DHT22;27926;48.062;7.474;2023-07-29T11:15:46;28.30;97.20
42261;DHT22;27926;48.062;7.474;2023-07-29T11:18:12;28.50;97.80
42261;DHT22;27926;48.062;7.474;2023-07-29T11:20:39;28.70;96.90
42261;DHT22;27926;48.062;7.474;2023-07-29T11:23:04;28.90;96.60
42261;DHT22;27926;48.062;7.474;2023-07-29T11:25:30;29.00;96.00
42261;DHT22;27926;48.062;7.474;2023-07-29T11:27:56;29.20;96.50
42261;DHT22;27926;48.062;7.474;2023-07-29T11:30:21;29.30;96.10
42261;DHT22;27926;48.062;7.474;2023-07-29T11:32:53;29.40;96.10
42261;DHT22;27926;48.062;7.474;2023-07-29T11:35:19;29.40;95.60
42261;DHT22;27926;48.062;7.474;2023-07-29T11:37:48;29.10;95.80
42261;DHT22;27926;48.062;7.474;2023-07-29T11:40:14;29.10;96.40
42261;DHT22;27926;48.062;7.474;2023-07-29T11:42:39;28.90;96.60
42261;DHT22;27926;48.062;7.474;2023-07-29T11:45:04;28.80;96.30
42261;DHT22;27926;48.062;7.474;2023-07-29T11:47:31;28.70;96.30
42261;DHT22;27926;48.062;7.474;2023-07-29T11:49:59;28.50;95.90
42261;DHT22;27926;48.062;7.474;2023-07-29T11:52:27;28.50;96.90
42261;DHT22;27926;48.062;7.474;2023-07-29T11:54:53;28.60;97.30
42261;DHT22;27926;48.062;7.474;2023-07-29T11:57:17;28.60;96.70
42261;DHT22;27926;48.062;7.474;2023-07-29T11:59:45;28.60;96.10
42261;DHT22;27926;48.062;7.474;2023-07-29T12:02:14;28.50;97.20
42261;DHT22;27926;48.062;7.474;2023-07-29T12:04:40;28.50;96.80
42261;DHT22;27926;48.062;7.474;2023-07-29T12:07:05;28.50;96.20
42261;DHT22;27926;48.062;7.474;2023-07-29T12:09:31;28.60;96.50
42261;DHT22;27926;48.062;7.474;2023-07-29T12:11:56;28.60;95.70
42261;DHT22;27926;48.062;7.474;2023-07-29T12:14:20;28.50;96.20
42261;DHT22;27926;48.062;7.474;2023-07-29T12:16:48;28.30;95.40
42261;DHT22;27926;48.062;7.474;2023-07-29T12:19:13;28.10;95.90
42261;DHT22;27926;48.062;7.474;2023-07-29T12:21:38;27.70;95.30
42261;DHT22;27926;48.062;7.474;2023-07-29T12:24:03;27.40;95.80
42261;DHT22;27926;48.062;7.474;2023-07-29T12:26:29;27.10;96.50
42261;DHT22;27926;48.062;7.474;2023-07-29T12:28:53;27.00;96.50
42261;DHT22;27926;48.062;7.474;2023-07-29T12:31:18;27.00;97.20
42261;DHT22;27926;48.062;7.474;2023-07-29T12:33:42;27.00;97.50
42261;DHT22;27926;48.062;7.474;2023-07-29T12:36:07;27.10;97.10
42261;DHT22;27926;48.062;7.474;2023-07-29T12:38:32;27.10;97.80
42261;DHT22;27926;48.062;7.474;2023-07-29T12:40:57;27.20;97.00
42261;DHT22;27926;48.062;7.474;2023-07-29T12:43:22;27.30;97.50
42261;DHT22;27926;48.062;7.474;2023-07-29T12:45:48;27.40;97.30
42261;DHT22;27926;48.062;7.474;2023-07-29T12:48:13;27.40;97.10
42261;DHT22;27926;48.062;7.474;2023-07-29T12:50:38;27.50;97.10
42261;DHT22;27926;48.062;7.474;2023-07-29T12:53:04;27.50;97.40
42261;DHT22;27926;48.062;7.474;2023-07-29T12:55:29;27.70;96.70
42261;DHT22;27926;48.062;7.474;2023-07-29T12:57:53;27.80;97.30
42261;DHT22;27926;48.062;7.474;2023-07-29T13:00:18;28.00;97.80
42261;DHT22;27926;48.062;7.474;2023-07-29T13:02:43;28.40;96.20
42261;DHT22;27926;48.062;7.474;2023-07-29T13:05:10;28.70;96.70
42261;DHT22;27926;48.062;7.474;2023-07-29T13:07:35;28.90;95.80
42261;DHT22;27926;48.062;7.474;2023-07-29T13:10:00;28.90;96.60
42261;DHT22;27926;48.062;7.474;2023-07-29T13:12:25;29.00;96.10
42261;DHT22;27926;48.062;7.474;2023-07-29T13:14:49;29.20;95.90
42261;DHT22;27926;48.062;7.474;2023-07-29T13:17:14;29.10;95.70
42261;DHT22;27926;48.062;7.474;2023-07-29T13:19:38;29.10;95.70
42261;DHT22;27926;48.062;7.474;2023-07-29T13:22:03;29.00;95.80
42261;DHT22;27926;48.062;7.474;2023-07-29T13:24:28;28.90;95.80
42261;DHT22;27926;48.062;7.474;2023-07-29T13:26:52;28.70;95.60
42261;DHT22;27926;48.062;7.474;2023-07-29T13:29:17;28.40;96.20
42261;DHT22;27926;48.062;7.474;2023-07-29T13:31:42;28.30;95.90
42261;DHT22;27926;48.062;7.474;2023-07-29T13:34:06;28.20;96.00
42261;DHT22;27926;48.062;7.474;2023-07-29T13:36:31;28.20;96.20
42261;DHT22;27926;48.062;7.474;2023-07-29T13:38:55;28.10;96.30
42261;DHT22;27926;48.062;7.474;2023-07-29T13:41:20;28.00;96.30
42261;DHT22;27926;48.062;7.474;2023-07-29T13:43:44;28.00;96.80
42261;DHT22;27926;48.062;7.474;2023-07-29T13:46:09;28.00;96.50
42261;DHT22;27926;48.062;7.474;2023-07-29T13:48:33;28.00;96.90
42261;DHT22;27926;48.062;7.474;2023-07-29T13:51:00;28.00;96.60
42261;DHT22;27926;48.062;7.474;2023-07-29T13:53:24;28.00;96.60
42261;DHT22;27926;48.062;7.474;2023-07-29T13:55:50;27.80;96.20
42261;DHT22;27926;48.062;7.474;2023-07-29T13:58:14;27.70;96.50
42261;DHT22;27926;48.062;7.474;2023-07-29T14:00:39;27.70;97.00
42261;DHT22;27926;48.062;7.474;2023-07-29T14:03:03;27.80;96.60
42261;DHT22;27926;48.062;7.474;2023-07-29T14:05:28;27.80;96.90
42261;DHT22;27926;48.062;7.474;2023-07-29T14:07:53;27.90;96.90
42261;DHT22;27926;48.062;7.474;2023-07-29T14:10:17;28.20;97.50
42261;DHT22;27926;48.062;7.474;2023-07-29T14:12:42;28.30;96.80
42261;DHT22;27926;48.062;7.474;2023-07-29T14:15:07;28.40;96.80
42261;DHT22;27926;48.062;7.474;2023-07-29T14:17:32;28.40;96.40
42261;DHT22;27926;48.062;7.474;2023-07-29T14:19:57;28.30;96.90
42261;DHT22;27926;48.062;7.474;2023-07-29T14:22:21;28.10;96.80
42261;DHT22;27926;48.062;7.474;2023-07-29T14:24:46;27.90;97.20
42261;DHT22;27926;48.062;7.474;2023-07-29T14:27:10;27.50;98.30
42261;DHT22;27926;48.062;7.474;2023-07-29T14:29:35;27.20;98.50
42261;DHT22;27926;48.062;7.474;2023-07-29T14:31:59;26.80;99.60
42261;DHT22;27926;48.062;7.474;2023-07-29T14:34:24;26.10;99.90
42261;DHT22;27926;48.062;7.474;2023-07-29T14:36:49;25.00;99.90
42261;DHT22;27926;48.062;7.474;2023-07-29T14:39:13;23.80;99.90
42261;DHT22;27926;48.062;7.474;2023-07-29T14:41:38;23.10;99.90
42261;DHT22;27926;48.062;7.474;2023-07-29T14:44:03;22.70;99.90
42261;DHT22;27926;48.062;7.474;2023-07-29T14:46:28;22.30;99.90
42261;DHT22;27926;48.062;7.474;2023-07-29T14:48:52;22.30;99.90
42261;DHT22;27926;48.062;7.474;2023-07-29T14:51:17;22.30;99.90
42261;DHT22;27926;48.062;7.474;2023-07-29T14:53:42;22.50;99.90
42261;DHT22;27926;48.062;7.474;2023-07-29T14:56:07;22.70;99.90
42261;DHT22;27926;48.062;7.474;2023-07-29T14:58:32;22.80;99.90
42261;DHT22;27926;48.062;7.474;2023-07-29T15:00:56;22.80;99.90
42261;DHT22;27926;48.062;7.474;2023-07-29T15:03:22;22.90;99.90
42261;DHT22;27926;48.062;7.474;2023-07-29T15:05:49;23.00;99.90
42261;DHT22;27926;48.062;7.474;2023-07-29T15:08:13;23.20;99.90
42261;DHT22;27926;48.062;7.474;2023-07-29T15:10:38;23.40;99.90
42261;DHT22;27926;48.062;7.474;2023-07-29T15:13:02;23.60;99.90
42261;DHT22;27926;48.062;7.474;2023-07-29T15:15:27;23.70;99.90
42261;DHT22;27926;48.062;7.474;2023-07-29T15:17:52;23.80;99.90
42261;DHT22;27926;48.062;7.474;2023-07-29T15:20:16;24.10;99.90
42261;DHT22;27926;48.062;7.474;2023-07-29T15:22:41;24.30;99.90
42261;DHT22;27926;48.062;7.474;2023-07-29T15:25:08;24.60;99.90
42261;DHT22;27926;48.062;7.474;2023-07-29T15:27:32;24.90;99.90
42261;DHT22;27926;48.062;7.474;2023-07-29T15:30:00;25.00;99.90
42261;DHT22;27926;48.062;7.474;2023-07-29T15:32:24;24.90;99.90
42261;DHT22;27926;48.062;7.474;2023-07-29T15:34:49;25.00;99.90
42261;DHT22;27926;48.062;7.474;2023-07-29T15:37:14;25.10;99.90
42261;DHT22;27926;48.062;7.474;2023-07-29T15:39:38;25.20;99.90
42261;DHT22;27926;48.062;7.474;2023-07-29T15:42:03;25.30;99.90
42261;DHT22;27926;48.062;7.474;2023-07-29T15:44:28;25.40;99.90
42261;DHT22;27926;48.062;7.474;2023-07-29T15:46:52;25.10;99.90
42261;DHT22;27926;48.062;7.474;2023-07-29T15:49:18;24.90;99.90
42261;DHT22;27926;48.062;7.474;2023-07-29T15:51:43;24.70;99.90
42261;DHT22;27926;48.062;7.474;2023-07-29T15:54:07;24.50;99.90
42261;DHT22;27926;48.062;7.474;2023-07-29T15:56:32;24.30;99.90
42261;DHT22;27926;48.062;7.474;2023-07-29T15:59:00;24.20;99.90
42261;DHT22;27926;48.062;7.474;2023-07-29T16:01:24;24.10;99.90
42261;DHT22;27926;48.062;7.474;2023-07-29T16:03:49;24.10;99.90
42261;DHT22;27926;48.062;7.474;2023-07-29T16:06:14;24.00;99.90
42261;DHT22;27926;48.062;7.474;2023-07-29T16:08:38;24.00;99.90
42261;DHT22;27926;48.062;7.474;2023-07-29T16:11:03;24.00;99.90
42261;DHT22;27926;48.062;7.474;2023-07-29T16:13:28;24.00;99.90
42261;DHT22;27926;48.062;7.474;2023-07-29T16:15:52;23.80;99.90
42261;DHT22;27926;48.062;7.474;2023-07-29T16:18:17;23.80;99.90
42261;DHT22;27926;48.062;7.474;2023-07-29T16:20:41;23.70;99.90
42261;DHT22;27926;48.062;7.474;2023-07-29T16:23:06;23.70;99.90
42261;DHT22;27926;48.062;7.474;2023-07-29T16:25:31;23.80;99.90
42261;DHT22;27926;48.062;7.474;2023-07-29T16:27:55;23.90;99.90
42261;DHT22;27926;48.062;7.474;2023-07-29T16:30:21;24.00;99.90
42261;DHT22;27926;48.062;7.474;2023-07-29T16:32:45;23.90;99.90
42261;DHT22;27926;48.062;7.474;2023-07-29T16:35:10;23.90;99.90
42261;DHT22;27926;48.062;7.474;2023-07-29T16:37:35;23.90;99.90
42261;DHT22;27926;48.062;7.474;2023-07-29T16:40:00;23.80;99.90
42261;DHT22;27926;48.062;7.474;2023-07-29T16:42:26;23.70;99.90
42261;DHT22;27926;48.062;7.474;2023-07-29T16:44:51;23.60;99.90
42261;DHT22;27926;48.062;7.474;2023-07-29T16:47:15;23.50;99.90
42261;DHT22;27926;48.062;7.474;2023-07-29T16:49:41;23.40;99.90
42261;DHT22;27926;48.062;7.474;2023-07-29T16:52:06;23.20;99.90
42261;DHT22;27926;48.062;7.474;2023-07-29T16:54:30;23.10;99.90
42261;DHT22;27926;48.062;7.474;2023-07-29T16:56:55;23.00;99.90
42261;DHT22;27926;48.062;7.474;2023-07-29T16:59:19;22.90;99.90
42261;DHT22;27926;48.062;7.474;2023-07-29T17:01:45;22.80;99.90
42261;DHT22;27926;48.062;7.474;2023-07-29T17:04:10;22.80;99.90
42261;DHT22;27926;48.062;7.474;2023-07-29T17:06:35;22.80;99.90
42261;DHT22;27926;48.062;7.474;2023-07-29T17:08:59;22.70;99.90
42261;DHT22;27926;48.062;7.474;2023-07-29T17:11:24;22.70;99.90
42261;DHT22;27926;48.062;7.474;2023-07-29T17:13:48;22.60;99.90
42261;DHT22;27926;48.062;7.474;2023-07-29T17:16:13;22.60;99.90
42261;DHT22;27926;48.062;7.474;2023-07-29T17:18:38;22.50;99.90
42261;DHT22;27926;48.062;7.474;2023-07-29T17:21:03;22.40;99.90
42261;DHT22;27926;48.062;7.474;2023-07-29T17:23:27;22.30;99.90
42261;DHT22;27926;48.062;7.474;2023-07-29T17:25:52;22.30;99.90
42261;DHT22;27926;48.062;7.474;2023-07-29T17:28:17;22.20;99.90
42261;DHT22;27926;48.062;7.474;2023-07-29T17:30:42;22.20;99.90
42261;DHT22;27926;48.062;7.474;2023-07-29T17:33:06;22.10;99.90
42261;DHT22;27926;48.062;7.474;2023-07-29T17:35:43;22.10;99.90
42261;DHT22;27926;48.062;7.474;2023-07-29T17:38:07;22.10;99.90
42261;DHT22;27926;48.062;7.474;2023-07-29T17:40:36;22.10;99.90
42261;DHT22;27926;48.062;7.474;2023-07-29T17:43:01;22.10;99.90
42261;DHT22;27926;48.062;7.474;2023-07-29T17:45:25;22.10;99.90
42261;DHT22;27926;48.062;7.474;2023-07-29T17:47:50;22.10;99.90
42261;DHT22;27926;48.062;7.474;2023-07-29T17:50:15;22.20;99.90
42261;DHT22;27926;48.062;7.474;2023-07-29T17:52:39;22.20;99.90
42261;DHT22;27926;48.062;7.474;2023-07-29T17:55:04;22.30;99.90
42261;DHT22;27926;48.062;7.474;2023-07-29T17:57:28;22.30;99.90
42261;DHT22;27926;48.062;7.474;2023-07-29T17:59:53;22.30;99.90
42261;DHT22;27926;48.062;7.474;2023-07-29T18:02:18;22.40;99.90
42261;DHT22;27926;48.062;7.474;2023-07-29T18:04:42;22.40;99.90
42261;DHT22;27926;48.062;7.474;2023-07-29T18:07:07;22.40;99.90
42261;DHT22;27926;48.062;7.474;2023-07-29T18:09:32;22.40;99.90
42261;DHT22;27926;48.062;7.474;2023-07-29T18:11:57;22.30;99.90
42261;DHT22;27926;48.062;7.474;2023-07-29T18:14:25;22.30;99.90